sensor_id;sensor_type;location;lat;lon;timestamp;P1;durP1;ratioP1;P2;durP2;ratioP2
35602;SDS011;21725;50.836;4.368;2022-09-13T00:01:07;5.15;;;2.75;;
35602;SDS011;21725;50.836;4.368;2022-09-13T00:03:33;6.03;;;2.92;;
35602;SDS011;21725;50.836;4.368;2022-09-13T00:06:07;5.47;;;3.00;;
35602;SDS011;21725;50.836;4.368;2022-09-13T00:08:52;5.22;;;2.25;;
35602;SDS011;21725;50.836;4.368;2022-09-13T00:11:31;6.90;;;3.10;;
35602;SDS011;21725;50.836;4.368;2022-09-13T00:13:57;4.65;;;3.03;;
35602;SDS011;21725;50.836;4.368;2022-09-13T00:16:28;4.40;;;3.03;;
35602;SDS011;21725;50.836;4.368;2022-09-13T00:18:54;7.47;;;3.10;;
35602;SDS011;21725;50.836;4.368;2022-09-13T00:21:21;4.47;;;2.50;;
35602;SDS011;21725;50.836;4.368;2022-09-13T00:23:48;3.97;;;2.40;;
35602;SDS011;21725;50.836;4.368;2022-09-13T00:26:17;5.40;;;2.60;;
35602;SDS011;21725;50.836;4.368;2022-09-13T00:28:44;6.05;;;2.70;;
35602;SDS011;21725;50.836;4.368;2022-09-13T00:31:36;4.63;;;2.50;;
35602;SDS011;21725;50.836;4.368;2022-09-13T00:34:02;4.78;;;2.20;;
35602;SDS011;21725;50.836;4.368;2022-09-13T00:36:28;5.20;;;2.70;;
35602;SDS011;21725;50.836;4.368;2022-09-13T00:38:55;6.28;;;2.88;;
35602;SDS011;21725;50.836;4.368;2022-09-13T00:41:20;3.95;;;2.08;;
35602;SDS011;21725;50.836;4.368;2022-09-13T00:44:04;6.93;;;3.03;;
35602;SDS011;21725;50.836;4.368;2022-09-13T00:46:50;6.10;;;2.58;;
35602;SDS011;21725;50.836;4.368;2022-09-13T00:52:09;3.40;;;1.98;;
35602;SDS011;21725;50.836;4.368;2022-09-13T00:54:41;6.78;;;2.20;;
35602;SDS011;21725;50.836;4.368;2022-09-13T00:57:17;3.35;;;2.00;;
35602;SDS011;21725;50.836;4.368;2022-09-13T01:00:03;3.05;;;1.98;;
35602;SDS011;21725;50.836;4.368;2022-09-13T01:02:39;7.45;;;2.30;;
35602;SDS011;21725;50.836;4.368;2022-09-13T01:05:08;5.22;;;2.17;;
35602;SDS011;21725;50.836;4.368;2022-09-13T01:07:35;3.42;;;2.25;;
35602;SDS011;21725;50.836;4.368;2022-09-13T01:10:02;2.88;;;1.73;;
35602;SDS011;21725;50.836;4.368;2022-09-13T01:15:10;3.35;;;2.17;;
35602;SDS011;21725;50.836;4.368;2022-09-13T01:17:36;10.50;;;2.17;;
35602;SDS011;21725;50.836;4.368;2022-09-13T01:20:09;5.22;;;2.85;;
35602;SDS011;21725;50.836;4.368;2022-09-13T01:25:57;4.88;;;2.33;;
35602;SDS011;21725;50.836;4.368;2022-09-13T01:34:01;4.40;;;2.25;;
35602;SDS011;21725;50.836;4.368;2022-09-13T01:45:26;3.95;;;2.28;;
35602;SDS011;21725;50.836;4.368;2022-09-13T01:48:32;3.75;;;2.30;;
35602;SDS011;21725;50.836;4.368;2022-09-13T01:54:29;4.07;;;2.10;;
35602;SDS011;21725;50.836;4.368;2022-09-13T01:57:00;3.42;;;1.98;;
35602;SDS011;21725;50.836;4.368;2022-09-13T02:05:06;3.38;;;2.00;;
35602;SDS011;21725;50.836;4.368;2022-09-13T02:07:39;2.53;;;1.67;;
35602;SDS011;21725;50.836;4.368;2022-09-13T02:10:09;4.95;;;2.00;;
35602;SDS011;21725;50.836;4.368;2022-09-13T02:15:27;4.97;;;2.42;;
35602;SDS011;21725;50.836;4.368;2022-09-13T02:18:11;4.25;;;2.05;;
35602;SDS011;21725;50.836;4.368;2022-09-13T02:20:43;5.13;;;2.25;;
35602;SDS011;21725;50.836;4.368;2022-09-13T02:23:18;3.53;;;2.38;;
35602;SDS011;21725;50.836;4.368;2022-09-13T02:25:56;3.58;;;2.10;;
35602;SDS011;21725;50.836;4.368;2022-09-13T02:31:11;5.63;;;2.63;;
35602;SDS011;21725;50.836;4.368;2022-09-13T02:34:02;3.67;;;2.25;;
35602;SDS011;21725;50.836;4.368;2022-09-13T02:36:34;5.63;;;2.38;;
35602;SDS011;21725;50.836;4.368;2022-09-13T02:39:11;3.45;;;2.13;;
35602;SDS011;21725;50.836;4.368;2022-09-13T02:41:53;4.78;;;2.60;;
35602;SDS011;21725;50.836;4.368;2022-09-13T02:44:47;6.93;;;2.30;;
35602;SDS011;21725;50.836;4.368;2022-09-13T03:00:52;7.03;;;2.67;;
35602;SDS011;21725;50.836;4.368;2022-09-13T03:03:22;5.25;;;2.85;;
35602;SDS011;21725;50.836;4.368;2022-09-13T03:05:48;5.72;;;2.58;;
35602;SDS011;21725;50.836;4.368;2022-09-13T03:08:17;7.32;;;2.75;;
35602;SDS011;21725;50.836;4.368;2022-09-13T03:16:27;7.30;;;3.90;;
35602;SDS011;21725;50.836;4.368;2022-09-13T03:30:48;6.10;;;3.47;;
35602;SDS011;21725;50.836;4.368;2022-09-13T03:33:38;6.28;;;2.67;;
35602;SDS011;21725;50.836;4.368;2022-09-13T03:36:23;4.63;;;2.90;;
35602;SDS011;21725;50.836;4.368;2022-09-13T03:39:06;5.82;;;3.17;;
35602;SDS011;21725;50.836;4.368;2022-09-13T03:41:41;5.47;;;3.65;;
35602;SDS011;21725;50.836;4.368;2022-09-13T03:44:11;7.32;;;2.60;;
35602;SDS011;21725;50.836;4.368;2022-09-13T03:46:41;6.38;;;3.03;;
35602;SDS011;21725;50.836;4.368;2022-09-13T03:49:11;4.43;;;2.78;;
35602;SDS011;21725;50.836;4.368;2022-09-13T03:51:40;3.85;;;2.50;;
35602;SDS011;21725;50.836;4.368;2022-09-13T03:54:18;4.53;;;2.70;;
35602;SDS011;21725;50.836;4.368;2022-09-13T03:57:19;6.03;;;2.25;;
35602;SDS011;21725;50.836;4.368;2022-09-13T03:59:48;6.30;;;3.28;;
35602;SDS011;21725;50.836;4.368;2022-09-13T04:02:35;6.85;;;3.33;;
35602;SDS011;21725;50.836;4.368;2022-09-13T04:05:05;5.47;;;3.70;;
35602;SDS011;21725;50.836;4.368;2022-09-13T04:30:00;4.00;;;2.60;;
35602;SDS011;21725;50.836;4.368;2022-09-13T04:32:35;6.50;;;3.92;;
35602;SDS011;21725;50.836;4.368;2022-09-13T04:35:01;5.72;;;2.65;;
35602;SDS011;21725;50.836;4.368;2022-09-13T04:37:29;4.68;;;3.03;;
35602;SDS011;21725;50.836;4.368;2022-09-13T04:40:04;7.75;;;2.83;;
35602;SDS011;21725;50.836;4.368;2022-09-13T04:45:32;6.00;;;2.58;;
35602;SDS011;21725;50.836;4.368;2022-09-13T04:47:58;4.40;;;2.78;;
35602;SDS011;21725;50.836;4.368;2022-09-13T04:50:36;4.55;;;2.88;;
35602;SDS011;21725;50.836;4.368;2022-09-13T04:53:01;4.28;;;2.65;;
35602;SDS011;21725;50.836;4.368;2022-09-13T04:55:28;5.47;;;2.83;;
35602;SDS011;21725;50.836;4.368;2022-09-13T04:58:03;7.97;;;2.67;;
35602;SDS011;21725;50.836;4.368;2022-09-13T05:00:29;6.13;;;2.90;;
35602;SDS011;21725;50.836;4.368;2022-09-13T05:03:10;7.85;;;2.75;;
35602;SDS011;21725;50.836;4.368;2022-09-13T05:05:42;7.90;;;2.95;;
35602;SDS011;21725;50.836;4.368;2022-09-13T05:08:09;6.38;;;2.97;;
35602;SDS011;21725;50.836;4.368;2022-09-13T05:10:53;11.50;;;3.05;;
35602;SDS011;21725;50.836;4.368;2022-09-13T05:13:22;6.82;;;2.80;;
35602;SDS011;21725;50.836;4.368;2022-09-13T05:15:48;5.97;;;3.28;;
35602;SDS011;21725;50.836;4.368;2022-09-13T05:18:14;8.88;;;3.20;;
35602;SDS011;21725;50.836;4.368;2022-09-13T05:20:40;6.35;;;3.10;;
35602;SDS011;21725;50.836;4.368;2022-09-13T05:23:05;5.53;;;3.35;;
35602;SDS011;21725;50.836;4.368;2022-09-13T05:25:31;5.20;;;2.70;;
35602;SDS011;21725;50.836;4.368;2022-09-13T05:28:03;9.85;;;3.00;;
35602;SDS011;21725;50.836;4.368;2022-09-13T05:30:28;4.05;;;2.90;;
35602;SDS011;21725;50.836;4.368;2022-09-13T05:32:54;5.85;;;2.60;;
35602;SDS011;21725;50.836;4.368;2022-09-13T05:35:23;7.82;;;3.15;;
35602;SDS011;21725;50.836;4.368;2022-09-13T05:37:49;6.45;;;3.10;;
35602;SDS011;21725;50.836;4.368;2022-09-13T05:40:15;5.00;;;3.05;;
35602;SDS011;21725;50.836;4.368;2022-09-13T05:42:40;7.82;;;3.72;;
35602;SDS011;21725;50.836;4.368;2022-09-13T05:45:06;9.40;;;3.75;;
35602;SDS011;21725;50.836;4.368;2022-09-13T05:47:32;15.10;;;4.80;;
35602;SDS011;21725;50.836;4.368;2022-09-13T05:49:58;9.38;;;3.88;;
35602;SDS011;21725;50.836;4.368;2022-09-13T05:52:23;11.60;;;4.18;;
35602;SDS011;21725;50.836;4.368;2022-09-13T05:54:49;9.60;;;4.47;;
35602;SDS011;21725;50.836;4.368;2022-09-13T05:57:15;17.30;;;5.57;;
35602;SDS011;21725;50.836;4.368;2022-09-13T05:59:40;8.25;;;4.75;;
35602;SDS011;21725;50.836;4.368;2022-09-13T06:02:07;11.18;;;5.45;;
35602;SDS011;21725;50.836;4.368;2022-09-13T06:04:34;8.95;;;4.80;;
35602;SDS011;21725;50.836;4.368;2022-09-13T06:06:59;10.40;;;4.93;;
35602;SDS011;21725;50.836;4.368;2022-09-13T06:09:25;9.93;;;5.40;;
35602;SDS011;21725;50.836;4.368;2022-09-13T06:11:54;10.38;;;5.47;;
35602;SDS011;21725;50.836;4.368;2022-09-13T06:14:22;10.02;;;5.13;;
35602;SDS011;21725;50.836;4.368;2022-09-13T06:16:48;17.00;;;6.43;;
35602;SDS011;21725;50.836;4.368;2022-09-13T06:19:13;22.83;;;6.32;;
35602;SDS011;21725;50.836;4.368;2022-09-13T06:21:39;19.70;;;6.13;;
35602;SDS011;21725;50.836;4.368;2022-09-13T06:24:09;20.05;;;5.55;;
35602;SDS011;21725;50.836;4.368;2022-09-13T06:26:34;25.48;;;6.85;;
35602;SDS011;21725;50.836;4.368;2022-09-13T06:29:00;11.93;;;4.82;;
35602;SDS011;21725;50.836;4.368;2022-09-13T06:31:26;13.45;;;5.15;;
35602;SDS011;21725;50.836;4.368;2022-09-13T06:33:59;12.25;;;4.40;;
35602;SDS011;21725;50.836;4.368;2022-09-13T06:36:27;17.02;;;4.88;;
35602;SDS011;21725;50.836;4.368;2022-09-13T06:42:17;12.45;;;4.68;;
35602;SDS011;21725;50.836;4.368;2022-09-13T06:51:51;17.63;;;6.55;;
35602;SDS011;21725;50.836;4.368;2022-09-13T06:54:16;16.13;;;7.22;;
35602;SDS011;21725;50.836;4.368;2022-09-13T06:56:42;17.52;;;8.13;;
35602;SDS011;21725;50.836;4.368;2022-09-13T06:59:08;26.10;;;7.85;;
35602;SDS011;21725;50.836;4.368;2022-09-13T07:01:41;17.92;;;5.18;;
35602;SDS011;21725;50.836;4.368;2022-09-13T07:04:08;38.47;;;6.55;;
35602;SDS011;21725;50.836;4.368;2022-09-13T07:06:37;13.43;;;6.28;;
35602;SDS011;21725;50.836;4.368;2022-09-13T07:09:15;12.48;;;5.22;;
35602;SDS011;21725;50.836;4.368;2022-09-13T07:11:43;20.30;;;7.70;;
35602;SDS011;21725;50.836;4.368;2022-09-13T07:14:26;19.27;;;6.55;;
35602;SDS011;21725;50.836;4.368;2022-09-13T07:16:53;15.20;;;7.55;;
35602;SDS011;21725;50.836;4.368;2022-09-13T07:19:21;18.88;;;7.15;;
35602;SDS011;21725;50.836;4.368;2022-09-13T07:21:53;15.27;;;7.68;;
35602;SDS011;21725;50.836;4.368;2022-09-13T07:24:20;9.75;;;6.53;;
35602;SDS011;21725;50.836;4.368;2022-09-13T07:26:47;14.13;;;7.88;;
35602;SDS011;21725;50.836;4.368;2022-09-13T07:29:17;13.07;;;5.55;;
35602;SDS011;21725;50.836;4.368;2022-09-13T07:31:47;16.90;;;5.43;;
35602;SDS011;21725;50.836;4.368;2022-09-13T07:34:17;12.00;;;4.75;;
35602;SDS011;21725;50.836;4.368;2022-09-13T07:36:48;14.05;;;5.60;;
35602;SDS011;21725;50.836;4.368;2022-09-13T07:39:17;8.23;;;4.50;;
35602;SDS011;21725;50.836;4.368;2022-09-13T07:42:01;14.93;;;5.18;;
35602;SDS011;21725;50.836;4.368;2022-09-13T07:44:34;8.68;;;4.50;;
35602;SDS011;21725;50.836;4.368;2022-09-13T07:47:05;12.83;;;4.27;;
35602;SDS011;21725;50.836;4.368;2022-09-13T07:49:30;7.07;;;4.80;;
35602;SDS011;21725;50.836;4.368;2022-09-13T07:51:59;10.20;;;4.40;;
35602;SDS011;21725;50.836;4.368;2022-09-13T07:54:25;14.63;;;4.85;;
35602;SDS011;21725;50.836;4.368;2022-09-13T07:56:50;11.63;;;5.40;;
35602;SDS011;21725;50.836;4.368;2022-09-13T07:59:16;19.90;;;5.20;;
35602;SDS011;21725;50.836;4.368;2022-09-13T08:01:45;16.40;;;5.13;;
35602;SDS011;21725;50.836;4.368;2022-09-13T08:04:14;13.90;;;5.00;;
35602;SDS011;21725;50.836;4.368;2022-09-13T08:06:42;8.38;;;3.95;;
35602;SDS011;21725;50.836;4.368;2022-09-13T08:09:08;8.80;;;3.70;;
35602;SDS011;21725;50.836;4.368;2022-09-13T08:11:40;7.70;;;4.13;;
35602;SDS011;21725;50.836;4.368;2022-09-13T08:14:11;19.13;;;4.60;;
35602;SDS011;21725;50.836;4.368;2022-09-13T08:16:39;9.25;;;4.05;;
35602;SDS011;21725;50.836;4.368;2022-09-13T08:19:05;13.18;;;4.22;;
35602;SDS011;21725;50.836;4.368;2022-09-13T08:21:38;10.35;;;4.10;;
35602;SDS011;21725;50.836;4.368;2022-09-13T08:26:52;8.00;;;3.72;;
35602;SDS011;21725;50.836;4.368;2022-09-13T08:29:24;7.40;;;4.28;;
35602;SDS011;21725;50.836;4.368;2022-09-13T08:31:49;20.45;;;4.93;;
35602;SDS011;21725;50.836;4.368;2022-09-13T08:34:15;9.82;;;4.78;;
35602;SDS011;21725;50.836;4.368;2022-09-13T08:36:43;9.23;;;4.05;;
35602;SDS011;21725;50.836;4.368;2022-09-13T08:39:09;13.00;;;4.50;;
35602;SDS011;21725;50.836;4.368;2022-09-13T08:47:18;8.18;;;4.63;;
35602;SDS011;21725;50.836;4.368;2022-09-13T08:50:06;13.77;;;4.63;;
35602;SDS011;21725;50.836;4.368;2022-09-13T08:55:18;15.00;;;6.55;;
35602;SDS011;21725;50.836;4.368;2022-09-13T09:00:34;19.42;;;5.45;;
35602;SDS011;21725;50.836;4.368;2022-09-13T09:05:46;10.00;;;4.97;;
35602;SDS011;21725;50.836;4.368;2022-09-13T09:16:52;10.85;;;6.45;;
35602;SDS011;21725;50.836;4.368;2022-09-13T09:22:17;12.45;;;6.43;;
35602;SDS011;21725;50.836;4.368;2022-09-13T09:24:46;9.32;;;6.00;;
35602;SDS011;21725;50.836;4.368;2022-09-13T09:27:16;14.98;;;5.95;;
35602;SDS011;21725;50.836;4.368;2022-09-13T09:29:44;12.18;;;5.63;;
35602;SDS011;21725;50.836;4.368;2022-09-13T09:40:37;11.02;;;6.65;;
35602;SDS011;21725;50.836;4.368;2022-09-13T09:45:48;11.07;;;6.30;;
35602;SDS011;21725;50.836;4.368;2022-09-13T09:48:18;12.05;;;5.75;;
35602;SDS011;21725;50.836;4.368;2022-09-13T09:50:57;9.10;;;5.22;;
35602;SDS011;21725;50.836;4.368;2022-09-13T09:56:02;9.32;;;4.57;;
35602;SDS011;21725;50.836;4.368;2022-09-13T09:58:44;14.38;;;6.38;;
35602;SDS011;21725;50.836;4.368;2022-09-13T10:01:26;11.77;;;5.35;;
35602;SDS011;21725;50.836;4.368;2022-09-13T10:04:07;8.48;;;4.10;;
35602;SDS011;21725;50.836;4.368;2022-09-13T10:27:35;10.25;;;4.25;;
35602;SDS011;21725;50.836;4.368;2022-09-13T10:30:06;12.60;;;4.45;;
35602;SDS011;21725;50.836;4.368;2022-09-13T10:32:53;12.48;;;5.82;;
35602;SDS011;21725;50.836;4.368;2022-09-13T10:35:25;11.68;;;4.57;;
35602;SDS011;21725;50.836;4.368;2022-09-13T10:37:55;7.10;;;3.88;;
35602;SDS011;21725;50.836;4.368;2022-09-13T10:40:26;10.32;;;4.63;;
35602;SDS011;21725;50.836;4.368;2022-09-13T10:42:55;11.75;;;5.20;;
35602;SDS011;21725;50.836;4.368;2022-09-13T10:45:23;11.43;;;4.30;;
35602;SDS011;21725;50.836;4.368;2022-09-13T10:50:20;10.02;;;3.85;;
35602;SDS011;21725;50.836;4.368;2022-09-13T10:52:58;9.85;;;4.40;;
35602;SDS011;21725;50.836;4.368;2022-09-13T11:00:33;8.68;;;4.00;;
35602;SDS011;21725;50.836;4.368;2022-09-13T11:03:24;11.90;;;5.40;;
35602;SDS011;21725;50.836;4.368;2022-09-13T11:06:16;13.27;;;4.82;;
35602;SDS011;21725;50.836;4.368;2022-09-13T11:20:10;9.73;;;4.13;;
35602;SDS011;21725;50.836;4.368;2022-09-13T11:45:29;10.98;;;3.70;;
35602;SDS011;21725;50.836;4.368;2022-09-13T11:48:29;10.38;;;3.80;;
35602;SDS011;21725;50.836;4.368;2022-09-13T11:51:32;6.93;;;2.75;;
35602;SDS011;21725;50.836;4.368;2022-09-13T11:54:37;9.82;;;3.50;;
35602;SDS011;21725;50.836;4.368;2022-09-13T11:57:21;13.20;;;3.85;;
35602;SDS011;21725;50.836;4.368;2022-09-13T12:00:00;9.10;;;4.45;;
35602;SDS011;21725;50.836;4.368;2022-09-13T12:02:38;6.32;;;3.05;;
35602;SDS011;21725;50.836;4.368;2022-09-13T12:05:10;13.43;;;5.57;;
35602;SDS011;21725;50.836;4.368;2022-09-13T12:07:48;11.20;;;3.95;;
35602;SDS011;21725;50.836;4.368;2022-09-13T12:10:21;9.97;;;3.93;;
35602;SDS011;21725;50.836;4.368;2022-09-13T12:13:08;9.50;;;3.75;;
35602;SDS011;21725;50.836;4.368;2022-09-13T12:16:04;13.00;;;3.97;;
35602;SDS011;21725;50.836;4.368;2022-09-13T12:27:11;7.30;;;3.85;;
35602;SDS011;21725;50.836;4.368;2022-09-13T12:30:32;6.80;;;4.47;;
35602;SDS011;21725;50.836;4.368;2022-09-13T12:33:07;8.15;;;4.82;;
35602;SDS011;21725;50.836;4.368;2022-09-13T12:35:37;6.55;;;4.05;;
35602;SDS011;21725;50.836;4.368;2022-09-13T12:45:35;9.52;;;4.57;;
35602;SDS011;21725;50.836;4.368;2022-09-13T13:00:23;11.50;;;4.53;;
35602;SDS011;21725;50.836;4.368;2022-09-13T13:03:20;5.95;;;4.00;;
35602;SDS011;21725;50.836;4.368;2022-09-13T13:06:17;7.53;;;3.95;;
35602;SDS011;21725;50.836;4.368;2022-09-13T13:09:41;11.48;;;4.88;;
35602;SDS011;21725;50.836;4.368;2022-09-13T13:18:23;6.90;;;3.92;;
35602;SDS011;21725;50.836;4.368;2022-09-13T13:21:05;13.02;;;4.43;;
35602;SDS011;21725;50.836;4.368;2022-09-13T13:23:46;8.82;;;3.80;;
35602;SDS011;21725;50.836;4.368;2022-09-13T13:29:24;10.40;;;4.28;;
35602;SDS011;21725;50.836;4.368;2022-09-13T13:34:34;7.30;;;3.75;;
35602;SDS011;21725;50.836;4.368;2022-09-13T13:37:04;16.35;;;4.00;;
35602;SDS011;21725;50.836;4.368;2022-09-13T13:39:47;7.03;;;3.95;;
35602;SDS011;21725;50.836;4.368;2022-09-13T13:42:34;10.75;;;5.38;;
35602;SDS011;21725;50.836;4.368;2022-09-13T13:45:23;9.43;;;4.43;;
35602;SDS011;21725;50.836;4.368;2022-09-13T13:47:55;11.38;;;4.32;;
35602;SDS011;21725;50.836;4.368;2022-09-13T13:50:39;12.40;;;6.32;;
35602;SDS011;21725;50.836;4.368;2022-09-13T13:53:46;7.57;;;5.00;;
35602;SDS011;21725;50.836;4.368;2022-09-13T13:56:26;7.63;;;4.90;;
35602;SDS011;21725;50.836;4.368;2022-09-13T13:59:18;7.43;;;5.40;;
35602;SDS011;21725;50.836;4.368;2022-09-13T14:01:55;9.13;;;4.93;;
35602;SDS011;21725;50.836;4.368;2022-09-13T14:10:00;7.93;;;4.32;;
35602;SDS011;21725;50.836;4.368;2022-09-13T14:15:43;7.97;;;4.25;;
35602;SDS011;21725;50.836;4.368;2022-09-13T14:18:43;10.40;;;4.25;;
35602;SDS011;21725;50.836;4.368;2022-09-13T14:21:36;7.95;;;4.35;;
35602;SDS011;21725;50.836;4.368;2022-09-13T14:24:12;9.88;;;4.53;;
35602;SDS011;21725;50.836;4.368;2022-09-13T14:26:48;8.07;;;4.70;;
35602;SDS011;21725;50.836;4.368;2022-09-13T14:29:22;11.10;;;5.40;;
35602;SDS011;21725;50.836;4.368;2022-09-13T14:31:53;11.50;;;5.63;;
35602;SDS011;21725;50.836;4.368;2022-09-13T14:34:34;7.32;;;4.47;;
35602;SDS011;21725;50.836;4.368;2022-09-13T14:37:04;9.40;;;5.10;;
35602;SDS011;21725;50.836;4.368;2022-09-13T14:39:54;6.55;;;3.85;;
35602;SDS011;21725;50.836;4.368;2022-09-13T14:45:39;7.63;;;4.33;;
35602;SDS011;21725;50.836;4.368;2022-09-13T14:48:08;11.20;;;5.85;;
35602;SDS011;21725;50.836;4.368;2022-09-13T14:51:29;9.90;;;4.80;;
35602;SDS011;21725;50.836;4.368;2022-09-13T14:54:21;7.38;;;4.38;;
35602;SDS011;21725;50.836;4.368;2022-09-13T14:57:04;6.65;;;4.47;;
35602;SDS011;21725;50.836;4.368;2022-09-13T14:59:34;8.38;;;4.38;;
35602;SDS011;21725;50.836;4.368;2022-09-13T15:02:19;7.82;;;4.55;;
35602;SDS011;21725;50.836;4.368;2022-09-13T15:04:49;9.13;;;4.55;;
35602;SDS011;21725;50.836;4.368;2022-09-13T15:07:22;5.43;;;3.78;;
35602;SDS011;21725;50.836;4.368;2022-09-13T15:09:57;8.65;;;4.72;;
35602;SDS011;21725;50.836;4.368;2022-09-13T15:12:48;9.20;;;4.80;;
35602;SDS011;21725;50.836;4.368;2022-09-13T15:17:55;10.05;;;6.18;;
35602;SDS011;21725;50.836;4.368;2022-09-13T15:20:24;8.20;;;5.50;;
35602;SDS011;21725;50.836;4.368;2022-09-13T15:25:23;7.00;;;5.18;;
35602;SDS011;21725;50.836;4.368;2022-09-13T15:27:58;10.48;;;6.35;;
35602;SDS011;21725;50.836;4.368;2022-09-13T15:30:27;11.38;;;6.70;;
35602;SDS011;21725;50.836;4.368;2022-09-13T15:33:14;7.82;;;5.93;;
35602;SDS011;21725;50.836;4.368;2022-09-13T15:39:16;8.95;;;5.80;;
35602;SDS011;21725;50.836;4.368;2022-09-13T15:41:51;10.63;;;6.72;;
35602;SDS011;21725;50.836;4.368;2022-09-13T15:44:18;11.13;;;5.43;;
35602;SDS011;21725;50.836;4.368;2022-09-13T15:46:49;14.05;;;6.57;;
35602;SDS011;21725;50.836;4.368;2022-09-13T15:49:19;8.50;;;6.45;;
35602;SDS011;21725;50.836;4.368;2022-09-13T15:51:46;10.10;;;6.57;;
35602;SDS011;21725;50.836;4.368;2022-09-13T15:54:21;11.48;;;7.25;;
35602;SDS011;21725;50.836;4.368;2022-09-13T15:56:47;10.80;;;6.70;;
35602;SDS011;21725;50.836;4.368;2022-09-13T15:59:16;9.00;;;5.60;;
35602;SDS011;21725;50.836;4.368;2022-09-13T16:01:53;11.18;;;5.75;;
35602;SDS011;21725;50.836;4.368;2022-09-13T16:04:19;7.72;;;5.22;;
35602;SDS011;21725;50.836;4.368;2022-09-13T16:28:00;9.82;;;6.88;;
35602;SDS011;21725;50.836;4.368;2022-09-13T16:30:26;10.27;;;7.13;;
35602;SDS011;21725;50.836;4.368;2022-09-13T16:32:55;18.13;;;6.53;;
35602;SDS011;21725;50.836;4.368;2022-09-13T16:35:21;10.18;;;6.43;;
35602;SDS011;21725;50.836;4.368;2022-09-13T16:37:49;12.50;;;7.53;;
35602;SDS011;21725;50.836;4.368;2022-09-13T16:40:17;12.35;;;8.25;;
35602;SDS011;21725;50.836;4.368;2022-09-13T16:42:43;12.13;;;6.63;;
35602;SDS011;21725;50.836;4.368;2022-09-13T16:45:09;13.85;;;7.97;;
35602;SDS011;21725;50.836;4.368;2022-09-13T16:47:38;13.70;;;7.45;;
35602;SDS011;21725;50.836;4.368;2022-09-13T16:50:05;12.00;;;6.70;;
35602;SDS011;21725;50.836;4.368;2022-09-13T16:52:32;10.40;;;6.70;;
35602;SDS011;21725;50.836;4.368;2022-09-13T16:54:59;11.25;;;6.95;;
35602;SDS011;21725;50.836;4.368;2022-09-13T16:57:25;12.35;;;6.43;;
35602;SDS011;21725;50.836;4.368;2022-09-13T16:59:51;10.95;;;6.72;;
35602;SDS011;21725;50.836;4.368;2022-09-13T17:02:18;9.85;;;7.07;;
35602;SDS011;21725;50.836;4.368;2022-09-13T17:04:44;16.30;;;8.57;;
35602;SDS011;21725;50.836;4.368;2022-09-13T17:07:11;8.68;;;6.70;;
35602;SDS011;21725;50.836;4.368;2022-09-13T17:09:38;11.68;;;6.90;;
35602;SDS011;21725;50.836;4.368;2022-09-13T17:12:05;13.15;;;6.72;;
35602;SDS011;21725;50.836;4.368;2022-09-13T17:14:32;14.18;;;6.22;;
35602;SDS011;21725;50.836;4.368;2022-09-13T17:16:58;10.63;;;6.40;;
35602;SDS011;21725;50.836;4.368;2022-09-13T17:19:25;9.98;;;6.35;;
35602;SDS011;21725;50.836;4.368;2022-09-13T17:22:06;11.20;;;6.43;;
35602;SDS011;21725;50.836;4.368;2022-09-13T17:24:34;10.13;;;7.43;;
35602;SDS011;21725;50.836;4.368;2022-09-13T17:27:01;9.65;;;5.53;;
35602;SDS011;21725;50.836;4.368;2022-09-13T17:29:32;8.20;;;4.93;;
35602;SDS011;21725;50.836;4.368;2022-09-13T17:31:58;10.30;;;5.43;;
35602;SDS011;21725;50.836;4.368;2022-09-13T17:34:26;8.65;;;5.43;;
35602;SDS011;21725;50.836;4.368;2022-09-13T17:36:52;9.27;;;5.63;;
35602;SDS011;21725;50.836;4.368;2022-09-13T17:39:18;12.05;;;7.20;;
35602;SDS011;21725;50.836;4.368;2022-09-13T17:41:45;9.00;;;6.28;;
35602;SDS011;21725;50.836;4.368;2022-09-13T17:44:12;9.68;;;6.25;;
35602;SDS011;21725;50.836;4.368;2022-09-13T17:46:39;15.45;;;7.55;;
35602;SDS011;21725;50.836;4.368;2022-09-13T17:49:04;9.50;;;6.75;;
35602;SDS011;21725;50.836;4.368;2022-09-13T17:51:31;9.05;;;6.18;;
35602;SDS011;21725;50.836;4.368;2022-09-13T17:53:58;11.75;;;7.72;;
35602;SDS011;21725;50.836;4.368;2022-09-13T17:59:13;11.40;;;7.07;;
35602;SDS011;21725;50.836;4.368;2022-09-13T18:01:42;8.70;;;6.78;;
35602;SDS011;21725;50.836;4.368;2022-09-13T18:04:11;10.95;;;6.43;;
35602;SDS011;21725;50.836;4.368;2022-09-13T18:06:38;9.65;;;6.60;;
35602;SDS011;21725;50.836;4.368;2022-09-13T18:09:06;11.45;;;6.30;;
35602;SDS011;21725;50.836;4.368;2022-09-13T18:11:33;12.18;;;7.68;;
35602;SDS011;21725;50.836;4.368;2022-09-13T18:13:59;12.05;;;7.75;;
35602;SDS011;21725;50.836;4.368;2022-09-13T18:16:25;13.55;;;7.78;;
35602;SDS011;21725;50.836;4.368;2022-09-13T18:18:53;13.38;;;8.93;;
35602;SDS011;21725;50.836;4.368;2022-09-13T18:21:20;10.50;;;8.10;;
35602;SDS011;21725;50.836;4.368;2022-09-13T18:23:48;11.32;;;9.38;;
35602;SDS011;21725;50.836;4.368;2022-09-13T18:26:17;11.20;;;7.90;;
35602;SDS011;21725;50.836;4.368;2022-09-13T18:28:51;14.38;;;10.20;;
35602;SDS011;21725;50.836;4.368;2022-09-13T18:31:19;10.02;;;7.50;;
35602;SDS011;21725;50.836;4.368;2022-09-13T18:33:45;12.23;;;8.25;;
35602;SDS011;21725;50.836;4.368;2022-09-13T18:36:21;8.68;;;6.80;;
35602;SDS011;21725;50.836;4.368;2022-09-13T18:38:47;12.18;;;7.70;;
35602;SDS011;21725;50.836;4.368;2022-09-13T18:41:14;11.13;;;7.88;;
35602;SDS011;21725;50.836;4.368;2022-09-13T18:43:42;12.35;;;8.40;;
35602;SDS011;21725;50.836;4.368;2022-09-13T18:46:16;11.38;;;7.38;;
35602;SDS011;21725;50.836;4.368;2022-09-13T18:48:44;11.95;;;8.23;;
35602;SDS011;21725;50.836;4.368;2022-09-13T18:51:21;12.60;;;9.27;;
35602;SDS011;21725;50.836;4.368;2022-09-13T18:53:49;11.13;;;8.38;;
35602;SDS011;21725;50.836;4.368;2022-09-13T18:56:16;10.95;;;8.27;;
35602;SDS011;21725;50.836;4.368;2022-09-13T18:58:43;21.53;;;14.63;;
35602;SDS011;21725;50.836;4.368;2022-09-13T19:01:13;11.25;;;8.57;;
35602;SDS011;21725;50.836;4.368;2022-09-13T19:06:23;13.77;;;7.78;;
35602;SDS011;21725;50.836;4.368;2022-09-13T19:08:50;10.65;;;7.50;;
35602;SDS011;21725;50.836;4.368;2022-09-13T19:11:19;10.45;;;6.88;;
35602;SDS011;21725;50.836;4.368;2022-09-13T19:16:14;7.60;;;6.15;;
35602;SDS011;21725;50.836;4.368;2022-09-13T19:18:44;8.82;;;5.18;;
35602;SDS011;21725;50.836;4.368;2022-09-13T19:23:47;13.30;;;6.60;;
35602;SDS011;21725;50.836;4.368;2022-09-13T19:26:15;8.90;;;7.22;;
35602;SDS011;21725;50.836;4.368;2022-09-13T19:28:46;12.18;;;6.40;;
35602;SDS011;21725;50.836;4.368;2022-09-13T19:31:21;8.50;;;5.93;;
35602;SDS011;21725;50.836;4.368;2022-09-13T19:33:48;10.40;;;6.65;;
35602;SDS011;21725;50.836;4.368;2022-09-13T19:36:17;10.18;;;6.93;;
35602;SDS011;21725;50.836;4.368;2022-09-13T19:38:51;8.23;;;5.82;;
35602;SDS011;21725;50.836;4.368;2022-09-13T19:41:22;7.80;;;5.93;;
35602;SDS011;21725;50.836;4.368;2022-09-13T19:43:49;9.90;;;6.05;;
35602;SDS011;21725;50.836;4.368;2022-09-13T19:46:33;9.10;;;6.00;;
35602;SDS011;21725;50.836;4.368;2022-09-13T19:49:02;10.07;;;6.57;;
35602;SDS011;21725;50.836;4.368;2022-09-13T19:51:30;9.18;;;5.30;;
35602;SDS011;21725;50.836;4.368;2022-09-13T19:58:59;8.95;;;5.55;;
35602;SDS011;21725;50.836;4.368;2022-09-13T20:01:35;11.27;;;5.60;;
35602;SDS011;21725;50.836;4.368;2022-09-13T20:04:06;8.15;;;6.43;;
35602;SDS011;21725;50.836;4.368;2022-09-13T20:06:34;9.60;;;5.95;;
35602;SDS011;21725;50.836;4.368;2022-09-13T20:09:05;10.32;;;7.40;;
35602;SDS011;21725;50.836;4.368;2022-09-13T20:11:32;9.15;;;6.78;;
35602;SDS011;21725;50.836;4.368;2022-09-13T20:13:58;10.68;;;7.40;;
35602;SDS011;21725;50.836;4.368;2022-09-13T20:16:46;10.30;;;6.70;;
35602;SDS011;21725;50.836;4.368;2022-09-13T20:19:15;8.50;;;6.05;;